createdAt,value
2018-05-10T00:00:08.105Z,0
2018-05-10T00:00:34.252Z,0
2018-05-10T00:01:00.389Z,0
2018-05-10T00:01:26.532Z,0
2018-05-10T00:01:52.677Z,0
2018-05-10T00:02:18.838Z,0
2018-05-10T00:02:44.980Z,0
2018-05-10T00:03:11.145Z,0
2018-05-10T00:03:37.274Z,0
2018-05-10T00:04:03.437Z,0
2018-05-10T00:04:29.600Z,0
2018-05-10T00:04:55.764Z,0
2018-05-10T00:05:21.931Z,0
2018-05-10T00:05:48.070Z,0
2018-05-10T00:06:14.213Z,0
2018-05-10T00:06:40.351Z,0
2018-05-10T00:07:06.492Z,0
2018-05-10T00:07:32.656Z,0
2018-05-10T00:07:58.817Z,0
2018-05-10T00:08:24.992Z,0
2018-05-10T00:08:51.159Z,0
2018-05-10T00:09:17.294Z,0
2018-05-10T00:09:43.434Z,0
2018-05-10T00:10:09.628Z,0
2018-05-10T00:10:35.779Z,0
2018-05-10T00:11:01.912Z,0
2018-05-10T00:11:28.118Z,0
2018-05-10T00:11:54.240Z,0
2018-05-10T00:12:20.404Z,0
2018-05-10T00:12:46.544Z,0
2018-05-10T00:13:12.684Z,0
2018-05-10T00:13:38.819Z,0
2018-05-10T00:14:04.954Z,0
2018-05-10T00:14:31.099Z,0
2018-05-10T00:14:57.232Z,0
2018-05-10T00:15:23.398Z,0
2018-05-10T00:15:49.565Z,0
2018-05-10T00:16:15.727Z,0
2018-05-10T00:16:41.870Z,0
2018-05-10T00:17:08.014Z,0
2018-05-10T00:17:34.154Z,0
2018-05-10T00:18:00.318Z,0
2018-05-10T00:18:26.458Z,0
2018-05-10T00:18:52.594Z,0
2018-05-10T00:19:18.743Z,0
2018-05-10T00:19:44.903Z,0
2018-05-10T00:20:11.046Z,0
2018-05-10T00:20:37.207Z,0
2018-05-10T00:21:03.340Z,0
2018-05-10T00:21:29.483Z,0
2018-05-10T00:21:55.672Z,0
2018-05-10T00:22:21.810Z,0
2018-05-10T00:22:47.950Z,0
2018-05-10T00:23:14.117Z,0
2018-05-10T00:23:40.260Z,0
2018-05-10T00:24:06.401Z,0
2018-05-10T00:24:32.557Z,0
2018-05-10T00:24:58.698Z,0
2018-05-10T00:25:24.848Z,0
2018-05-10T00:25:51.010Z,0
2018-05-10T00:26:17.148Z,0
2018-05-10T00:26:43.295Z,0
2018-05-10T00:27:09.437Z,0
2018-05-10T00:27:35.573Z,0
2018-05-10T00:28:01.722Z,0
2018-05-10T00:28:27.858Z,0
2018-05-10T00:28:54.038Z,0
2018-05-10T00:29:20.202Z,0
2018-05-10T00:29:46.337Z,0
2018-05-10T00:30:12.475Z,0
2018-05-10T00:30:38.623Z,0
2018-05-10T00:31:04.761Z,0
2018-05-10T00:31:30.902Z,0
2018-05-10T00:31:57.045Z,0
2018-05-10T00:32:23.176Z,0
2018-05-10T00:32:49.316Z,0
2018-05-10T00:33:15.457Z,0
2018-05-10T00:33:41.600Z,0
2018-05-10T00:34:07.738Z,0
2018-05-10T00:34:33.878Z,0
2018-05-10T00:35:00.017Z,0
2018-05-10T00:35:26.170Z,0
2018-05-10T00:35:52.338Z,0
2018-05-10T00:36:18.476Z,0
2018-05-10T00:36:44.622Z,0
2018-05-10T00:37:10.764Z,0
2018-05-10T00:37:36.902Z,0
2018-05-10T00:38:03.071Z,0
2018-05-10T00:38:29.242Z,0
2018-05-10T00:38:55.403Z,0
2018-05-10T00:39:21.570Z,0
2018-05-10T00:39:47.712Z,0
2018-05-10T00:40:13.847Z,0
2018-05-10T00:40:40.018Z,0
2018-05-10T00:41:06.181Z,0
2018-05-10T00:41:32.322Z,0
2018-05-10T00:41:58.494Z,0
2018-05-10T00:42:24.630Z,0
2018-05-10T00:42:50.791Z,0
2018-05-10T00:43:16.936Z,0
2018-05-10T00:43:43.080Z,0
2018-05-10T00:44:09.220Z,0
2018-05-10T00:44:35.355Z,0
2018-05-10T00:45:01.498Z,0
2018-05-10T00:45:27.642Z,0
2018-05-10T00:45:53.784Z,0
2018-05-10T00:46:19.923Z,0
2018-05-10T00:46:46.064Z,0
2018-05-10T00:47:12.229Z,0
2018-05-10T00:47:38.375Z,0
2018-05-10T00:48:04.511Z,0
2018-05-10T00:48:30.652Z,0
2018-05-10T00:48:56.817Z,0
2018-05-10T00:49:22.955Z,0
2018-05-10T00:49:49.128Z,0
2018-05-10T00:50:15.260Z,0
2018-05-10T00:50:41.401Z,0
2018-05-10T00:51:07.649Z,0
2018-05-10T00:51:33.716Z,0
2018-05-10T00:51:59.858Z,0
2018-05-10T00:52:25.997Z,0
2018-05-10T00:52:52.139Z,0
2018-05-10T00:53:18.276Z,0
2018-05-10T00:53:44.451Z,0
2018-05-10T00:54:10.592Z,0
2018-05-10T00:54:36.725Z,0
2018-05-10T00:55:02.917Z,0
2018-05-10T00:55:29.058Z,0
2018-05-10T00:55:55.204Z,0
2018-05-10T00:56:21.333Z,0
2018-05-10T00:56:47.471Z,0
2018-05-10T00:57:13.614Z,0
2018-05-10T00:57:39.757Z,0
2018-05-10T00:58:05.898Z,0
2018-05-10T00:58:32.038Z,0
2018-05-10T00:58:58.178Z,0
2018-05-10T00:59:24.328Z,0
2018-05-10T00:59:50.496Z,0
2018-05-10T01:00:16.630Z,0
2018-05-10T01:00:42.789Z,0
2018-05-10T01:01:08.924Z,0
2018-05-10T01:01:35.062Z,0
2018-05-10T01:02:01.226Z,0
2018-05-10T01:02:27.367Z,0
2018-05-10T01:02:53.507Z,0
2018-05-10T01:03:19.672Z,0
2018-05-10T01:03:45.805Z,0
2018-05-10T01:04:11.966Z,0
2018-05-10T01:04:38.105Z,0
2018-05-10T01:05:04.260Z,0
2018-05-10T01:05:30.406Z,0
2018-05-10T01:05:56.548Z,0
2018-05-10T01:06:22.716Z,0
2018-05-10T01:06:48.858Z,0
2018-05-10T01:07:15.002Z,0
2018-05-10T01:07:41.140Z,0
2018-05-10T01:08:07.280Z,0
2018-05-10T01:08:33.466Z,0
2018-05-10T01:08:59.626Z,0
2018-05-10T01:09:25.767Z,0
2018-05-10T01:09:51.907Z,0
2018-05-10T01:10:18.068Z,0
2018-05-10T01:10:44.257Z,0
2018-05-10T01:11:10.400Z,0
2018-05-10T01:11:36.535Z,0
2018-05-10T01:12:02.677Z,0
2018-05-10T01:12:28.851Z,0
2018-05-10T01:12:54.987Z,0
2018-05-10T01:13:21.136Z,0
2018-05-10T01:13:47.281Z,0
2018-05-10T01:14:13.421Z,0
2018-05-10T01:14:39.561Z,0
2018-05-10T01:15:05.758Z,0
2018-05-10T01:15:31.870Z,0
2018-05-10T01:15:58.004Z,0
2018-05-10T01:16:24.171Z,0
2018-05-10T01:16:50.334Z,0
2018-05-10T01:17:16.473Z,0
2018-05-10T01:17:42.616Z,0
2018-05-10T01:18:08.748Z,0
2018-05-10T01:18:34.907Z,0
2018-05-10T01:19:01.078Z,0
2018-05-10T01:19:27.230Z,0
2018-05-10T01:19:53.365Z,0
2018-05-10T01:20:19.505Z,0
2018-05-10T01:20:45.648Z,0
2018-05-10T01:21:11.792Z,0
2018-05-10T01:21:37.952Z,0
2018-05-10T01:22:04.093Z,0
2018-05-10T01:22:30.235Z,0
2018-05-10T01:22:56.369Z,0
2018-05-10T01:23:22.509Z,0
2018-05-10T01:23:48.650Z,0
2018-05-10T01:24:14.783Z,0
2018-05-10T01:24:40.929Z,0
2018-05-10T01:25:07.101Z,0
2018-05-10T01:25:33.264Z,0
2018-05-10T01:25:59.403Z,0
2018-05-10T01:26:25.567Z,0
2018-05-10T01:26:51.714Z,0
2018-05-10T01:27:17.844Z,0
2018-05-10T01:27:43.987Z,0
2018-05-10T01:28:10.127Z,0
2018-05-10T01:28:36.265Z,0
2018-05-10T01:29:02.406Z,0
2018-05-10T01:29:28.545Z,0
2018-05-10T01:29:54.685Z,0
2018-05-10T01:30:20.822Z,0
2018-05-10T01:30:46.955Z,0
2018-05-10T01:31:13.116Z,0
2018-05-10T01:31:39.257Z,0
2018-05-10T01:32:05.394Z,0
2018-05-10T01:32:31.540Z,0
2018-05-10T01:32:57.676Z,0
2018-05-10T01:33:23.810Z,0
2018-05-10T01:33:49.947Z,0
2018-05-10T01:34:16.094Z,0
2018-05-10T01:34:42.228Z,0
2018-05-10T01:35:08.379Z,0
2018-05-10T01:35:34.516Z,0
2018-05-10T01:36:00.649Z,0
2018-05-10T01:36:26.785Z,0
2018-05-10T01:36:52.928Z,0
2018-05-10T01:37:19.065Z,0
2018-05-10T01:37:45.217Z,0
2018-05-10T01:38:11.353Z,0
2018-05-10T01:38:37.497Z,0
2018-05-10T01:39:03.655Z,0
2018-05-10T01:39:29.789Z,0
2018-05-10T01:39:55.930Z,0
2018-05-10T01:40:22.120Z,0
2018-05-10T01:40:48.261Z,0
2018-05-10T01:41:14.403Z,0
2018-05-10T01:41:40.561Z,0
2018-05-10T01:42:06.702Z,0
2018-05-10T01:42:32.845Z,0
2018-05-10T01:42:58.994Z,0
2018-05-10T01:43:25.182Z,0
2018-05-10T01:43:51.318Z,0
2018-05-10T01:44:17.469Z,0
2018-05-10T01:44:43.627Z,0
2018-05-10T01:45:09.776Z,0
2018-05-10T01:45:35.902Z,0
2018-05-10T01:46:02.071Z,0
2018-05-10T01:46:28.209Z,0
2018-05-10T01:46:54.359Z,0
2018-05-10T01:47:20.495Z,0
2018-05-10T01:47:46.662Z,0
2018-05-10T01:48:12.805Z,0
2018-05-10T01:48:38.995Z,0
2018-05-10T01:49:05.167Z,0
2018-05-10T01:49:31.307Z,0
2018-05-10T01:49:57.458Z,0
2018-05-10T01:50:23.618Z,0
2018-05-10T01:50:49.749Z,0
2018-05-10T01:51:15.896Z,0
2018-05-10T01:51:42.046Z,0
2018-05-10T01:52:08.193Z,0
2018-05-10T01:52:34.331Z,0
2018-05-10T01:53:00.475Z,0
2018-05-10T01:53:26.635Z,0
2018-05-10T01:53:52.775Z,0
2018-05-10T01:54:18.917Z,0
2018-05-10T01:54:45.054Z,0
2018-05-10T01:55:11.219Z,0
2018-05-10T01:55:37.372Z,0
2018-05-10T01:56:03.521Z,0
2018-05-10T01:56:29.679Z,0
2018-05-10T01:56:55.818Z,0
2018-05-10T01:57:21.960Z,0
2018-05-10T01:57:48.101Z,0
2018-05-10T01:58:14.263Z,0
2018-05-10T01:58:40.406Z,0
2018-05-10T01:59:06.545Z,0
2018-05-10T01:59:32.683Z,0
2018-05-10T01:59:58.822Z,0
2018-05-10T02:00:24.965Z,0
2018-05-10T02:00:51.129Z,0
2018-05-10T02:01:17.270Z,0
2018-05-10T02:01:43.413Z,0
2018-05-10T02:02:09.563Z,0
2018-05-10T02:02:35.688Z,0
2018-05-10T02:03:01.835Z,0
2018-05-10T02:03:28.001Z,0
2018-05-10T02:03:54.136Z,0
2018-05-10T02:04:20.279Z,0
2018-05-10T02:04:46.439Z,0
2018-05-10T02:05:12.579Z,0
2018-05-10T02:05:38.710Z,0
2018-05-10T02:06:04.857Z,0
2018-05-10T02:06:31.020Z,0
2018-05-10T02:06:57.166Z,0
2018-05-10T02:07:23.297Z,0
2018-05-10T02:07:49.445Z,0
2018-05-10T02:08:15.616Z,0
2018-05-10T02:08:41.757Z,0
2018-05-10T02:09:07.897Z,0
2018-05-10T02:09:34.063Z,0
2018-05-10T02:10:00.201Z,0
2018-05-10T02:10:26.340Z,0
2018-05-10T02:10:52.483Z,0
2018-05-10T02:11:18.637Z,0
2018-05-10T02:11:44.778Z,0
2018-05-10T02:12:10.914Z,0
2018-05-10T02:12:37.060Z,0
2018-05-10T02:13:03.201Z,0
2018-05-10T02:13:29.343Z,0
2018-05-10T02:13:55.524Z,0
2018-05-10T02:14:21.660Z,0
2018-05-10T02:14:47.866Z,0
2018-05-10T02:15:13.986Z,0
2018-05-10T02:15:40.160Z,0
2018-05-10T02:16:06.292Z,0
2018-05-10T02:16:32.436Z,0
2018-05-10T02:16:58.582Z,0
2018-05-10T02:17:24.726Z,0
2018-05-10T02:17:50.890Z,0
2018-05-10T02:18:17.034Z,0
2018-05-10T02:18:43.175Z,0
2018-05-10T02:19:09.361Z,0
2018-05-10T02:19:35.508Z,0
2018-05-10T02:20:01.635Z,0
2018-05-10T02:20:27.774Z,0
2018-05-10T02:20:53.914Z,0
2018-05-10T02:21:20.064Z,0
2018-05-10T02:21:46.200Z,0
2018-05-10T02:22:12.342Z,0
2018-05-10T02:22:38.478Z,0
2018-05-10T02:23:04.627Z,0
2018-05-10T02:23:30.762Z,0
2018-05-10T02:23:56.904Z,0
2018-05-10T02:24:23.042Z,0
2018-05-10T02:24:49.207Z,0
2018-05-10T02:25:15.349Z,0
2018-05-10T02:25:41.479Z,0
2018-05-10T02:26:07.625Z,0
2018-05-10T02:26:33.768Z,0
2018-05-10T02:26:59.933Z,0
2018-05-10T02:27:26.079Z,0
2018-05-10T02:27:52.214Z,0
2018-05-10T02:28:18.356Z,0
2018-05-10T02:28:44.495Z,0
2018-05-10T02:29:10.634Z,0
2018-05-10T02:29:36.921Z,0
2018-05-10T02:30:02.969Z,0
2018-05-10T02:30:29.109Z,0
2018-05-10T02:30:55.292Z,0
2018-05-10T02:31:21.460Z,0
2018-05-10T02:31:47.621Z,0
2018-05-10T02:32:13.767Z,0
2018-05-10T02:32:39.938Z,0
2018-05-10T02:33:06.100Z,0
2018-05-10T02:33:32.317Z,0
2018-05-10T02:33:58.525Z,0
2018-05-10T02:34:24.673Z,0
2018-05-10T02:34:50.853Z,0
2018-05-10T02:35:17.048Z,0
2018-05-10T02:35:43.228Z,0
2018-05-10T02:36:09.424Z,0
2018-05-10T02:36:35.610Z,0
2018-05-10T02:37:01.776Z,0
2018-05-10T02:37:27.939Z,0
2018-05-10T02:37:54.074Z,0
2018-05-10T02:38:20.247Z,0
2018-05-10T02:38:46.380Z,0
2018-05-10T02:39:12.542Z,0
2018-05-10T02:39:38.680Z,0
2018-05-10T02:40:04.845Z,0
2018-05-10T02:40:30.991Z,0
2018-05-10T02:40:57.142Z,0
2018-05-10T02:41:23.374Z,0
2018-05-10T02:41:49.443Z,0
2018-05-10T02:42:15.608Z,0
2018-05-10T02:42:41.777Z,0
2018-05-10T02:43:08.002Z,0
2018-05-10T02:43:34.173Z,0
2018-05-10T02:44:00.348Z,0
2018-05-10T02:44:26.500Z,0
2018-05-10T02:44:52.747Z,0
2018-05-10T02:45:18.840Z,0
2018-05-10T02:45:44.981Z,0
2018-05-10T02:46:11.142Z,0
2018-05-10T02:46:37.305Z,0
2018-05-10T02:47:03.465Z,0
2018-05-10T02:47:29.628Z,0
2018-05-10T02:47:55.782Z,0
2018-05-10T02:48:21.968Z,0
2018-05-10T02:48:48.153Z,0
2018-05-10T02:49:14.286Z,0
2018-05-10T02:49:40.458Z,0
2018-05-10T02:50:06.657Z,0
2018-05-10T02:50:32.819Z,0
2018-05-10T02:50:59.003Z,0
2018-05-10T02:51:25.171Z,0
2018-05-10T02:51:51.333Z,0
2018-05-10T02:52:17.495Z,0
2018-05-10T02:52:43.656Z,0
2018-05-10T02:53:09.819Z,0
2018-05-10T02:53:35.979Z,0
2018-05-10T02:54:02.141Z,0
2018-05-10T02:54:28.281Z,0
2018-05-10T02:54:54.489Z,0
2018-05-10T02:55:20.673Z,0
2018-05-10T02:55:46.835Z,0
2018-05-10T02:56:12.989Z,0
2018-05-10T02:56:39.162Z,0
2018-05-10T02:57:05.322Z,0
2018-05-10T02:57:31.485Z,0
2018-05-10T02:57:57.705Z,0
2018-05-10T02:58:23.870Z,0
2018-05-10T02:58:50.038Z,0
2018-05-10T02:59:16.196Z,0
2018-05-10T02:59:42.355Z,0
2018-05-10T03:00:08.552Z,0
2018-05-10T03:00:34.746Z,0
2018-05-10T03:01:00.879Z,0
2018-05-10T03:01:27.050Z,0
2018-05-10T03:01:53.222Z,0
2018-05-10T03:02:19.386Z,0
2018-05-10T03:02:45.526Z,0
2018-05-10T03:03:11.689Z,0
2018-05-10T03:03:37.875Z,0
2018-05-10T03:04:04.015Z,0
2018-05-10T03:04:30.176Z,0
2018-05-10T03:04:56.355Z,0
2018-05-10T03:05:22.542Z,0
2018-05-10T03:05:48.683Z,0
2018-05-10T03:06:14.853Z,0
2018-05-10T03:06:40.994Z,0
2018-05-10T03:07:07.159Z,0
2018-05-10T03:07:33.349Z,0
2018-05-10T03:07:59.487Z,0
2018-05-10T03:08:25.651Z,0
2018-05-10T03:08:51.825Z,0
2018-05-10T03:09:17.968Z,0
2018-05-10T03:09:44.130Z,0
2018-05-10T03:10:10.267Z,0
2018-05-10T03:10:36.429Z,0
2018-05-10T03:11:02.566Z,0
2018-05-10T03:11:28.735Z,0
2018-05-10T03:11:54.896Z,0
2018-05-10T03:12:21.041Z,0
2018-05-10T03:12:47.210Z,0
2018-05-10T03:13:13.350Z,0
2018-05-10T03:13:39.529Z,0
2018-05-10T03:14:05.752Z,0
2018-05-10T03:14:31.939Z,0
2018-05-10T03:14:58.157Z,0
2018-05-10T03:15:24.352Z,0
2018-05-10T03:15:50.489Z,0
2018-05-10T03:16:16.655Z,0
2018-05-10T03:16:42.792Z,0
2018-05-10T03:17:08.950Z,0
2018-05-10T03:17:35.122Z,0
2018-05-10T03:18:01.284Z,0
2018-05-10T03:18:27.424Z,0
2018-05-10T03:18:53.567Z,0
2018-05-10T03:19:19.705Z,0
2018-05-10T03:19:45.843Z,0
2018-05-10T03:20:11.978Z,0
2018-05-10T03:20:38.117Z,0
2018-05-10T03:21:04.267Z,0
2018-05-10T03:21:30.430Z,0
2018-05-10T03:21:56.616Z,0
2018-05-10T03:22:22.752Z,0
2018-05-10T03:22:48.923Z,0
2018-05-10T03:23:15.091Z,0
2018-05-10T03:23:41.233Z,0
2018-05-10T03:24:07.372Z,0
2018-05-10T03:24:33.567Z,0
2018-05-10T03:24:59.705Z,0
2018-05-10T03:25:25.838Z,0
2018-05-10T03:25:51.996Z,0
2018-05-10T03:26:18.183Z,0
2018-05-10T03:26:44.343Z,0
2018-05-10T03:27:10.485Z,0
2018-05-10T03:27:36.626Z,0
2018-05-10T03:28:02.770Z,0
2018-05-10T03:28:28.906Z,0
2018-05-10T03:28:55.049Z,0
2018-05-10T03:29:21.187Z,0
2018-05-10T03:29:47.327Z,0
2018-05-10T03:30:13.490Z,0
2018-05-10T03:30:39.678Z,0
2018-05-10T03:31:05.894Z,0
2018-05-10T03:31:32.089Z,0
2018-05-10T03:31:58.273Z,0
2018-05-10T03:32:24.413Z,0
2018-05-10T03:32:50.547Z,0
2018-05-10T03:33:16.718Z,0
2018-05-10T03:33:42.848Z,0
2018-05-10T03:34:08.980Z,0
2018-05-10T03:34:35.139Z,0
2018-05-10T03:35:01.282Z,0
2018-05-10T03:35:27.424Z,0
2018-05-10T03:35:53.560Z,0
2018-05-10T03:36:19.706Z,0
2018-05-10T03:36:45.875Z,5
2018-05-10T03:37:12.017Z,5
2018-05-10T03:37:38.152Z,5
2018-05-10T03:38:04.291Z,5
2018-05-10T03:38:30.441Z,5
2018-05-10T03:38:56.584Z,5
2018-05-10T03:39:22.747Z,5
2018-05-10T03:39:48.883Z,5
2018-05-10T03:40:15.045Z,5
2018-05-10T03:40:41.220Z,5
2018-05-10T03:41:07.360Z,5
2018-05-10T03:41:33.498Z,5
2018-05-10T03:41:59.641Z,5
2018-05-10T03:42:25.783Z,5
2018-05-10T03:42:51.916Z,5
2018-05-10T03:43:18.062Z,5
2018-05-10T03:43:44.199Z,5
2018-05-10T03:44:10.371Z,5
2018-05-10T03:44:36.502Z,5
2018-05-10T03:45:02.641Z,10
2018-05-10T03:45:28.778Z,10
2018-05-10T03:45:54.920Z,10
2018-05-10T03:46:21.106Z,10
2018-05-10T03:46:47.254Z,10
2018-05-10T03:47:13.364Z,10
2018-05-10T03:47:39.500Z,10
2018-05-10T03:48:05.643Z,10
2018-05-10T03:48:31.789Z,10
2018-05-10T03:48:58.049Z,10
2018-05-10T03:49:24.108Z,10
2018-05-10T03:49:50.279Z,15
2018-05-10T03:50:16.464Z,15
2018-05-10T03:50:42.602Z,15
2018-05-10T03:51:08.763Z,15
2018-05-10T03:51:34.901Z,15
2018-05-10T03:52:01.039Z,15
2018-05-10T03:52:27.182Z,15
2018-05-10T03:52:53.345Z,15
2018-05-10T03:53:19.485Z,15
2018-05-10T03:53:45.629Z,15
2018-05-10T03:54:11.769Z,20
2018-05-10T03:54:37.911Z,20
2018-05-10T03:55:04.045Z,20
2018-05-10T03:55:30.203Z,20
2018-05-10T03:55:56.340Z,20
2018-05-10T03:56:22.503Z,20
2018-05-10T03:56:48.648Z,20
2018-05-10T03:57:14.784Z,20
2018-05-10T03:57:40.947Z,20
2018-05-10T03:58:07.116Z,25
2018-05-10T03:58:33.254Z,25
2018-05-10T03:58:59.388Z,25
2018-05-10T03:59:25.548Z,25
2018-05-10T03:59:51.685Z,25
2018-05-10T04:00:17.839Z,25
2018-05-10T04:00:43.973Z,25
2018-05-10T04:01:10.137Z,25
2018-05-10T04:01:36.276Z,25
2018-05-10T04:02:02.477Z,25
2018-05-10T04:02:28.617Z,30
2018-05-10T04:02:54.782Z,30
2018-05-10T04:03:20.920Z,30
2018-05-10T04:03:47.056Z,25
2018-05-10T04:04:13.201Z,30
2018-05-10T04:04:39.340Z,30
2018-05-10T04:05:05.479Z,30
2018-05-10T04:05:31.617Z,30
2018-05-10T04:05:57.756Z,35
2018-05-10T04:06:23.914Z,35
2018-05-10T04:06:50.056Z,35
2018-05-10T04:07:16.219Z,35
2018-05-10T04:07:42.361Z,40
2018-05-10T04:08:08.498Z,40
2018-05-10T04:08:34.660Z,40
2018-05-10T04:09:00.804Z,45
2018-05-10T04:09:26.941Z,45
2018-05-10T04:09:53.080Z,45
2018-05-10T04:10:19.223Z,50
2018-05-10T04:10:45.357Z,50
2018-05-10T04:11:11.499Z,50
2018-05-10T04:11:37.637Z,50
2018-05-10T04:12:03.807Z,50
2018-05-10T04:12:29.971Z,55
2018-05-10T04:12:56.104Z,55
2018-05-10T04:13:22.245Z,60
2018-05-10T04:13:48.380Z,60
2018-05-10T04:14:14.528Z,60
2018-05-10T04:14:40.667Z,65
2018-05-10T04:15:06.833Z,70
2018-05-10T04:15:33.062Z,70
2018-05-10T04:15:59.112Z,70
2018-05-10T04:16:25.278Z,70
2018-05-10T04:16:51.412Z,75
2018-05-10T04:17:17.582Z,75
2018-05-10T04:17:43.715Z,75
2018-05-10T04:18:09.858Z,75
2018-05-10T04:18:36.021Z,75
2018-05-10T04:19:02.167Z,75
2018-05-10T04:19:28.299Z,75
2018-05-10T04:19:54.435Z,75
2018-05-10T04:20:20.601Z,75
2018-05-10T04:20:46.742Z,75
2018-05-10T04:21:12.884Z,75
2018-05-10T04:21:39.050Z,75
2018-05-10T04:22:05.185Z,75
2018-05-10T04:22:31.327Z,75
2018-05-10T04:22:57.488Z,75
2018-05-10T04:23:23.636Z,75
2018-05-10T04:23:49.794Z,80
2018-05-10T04:24:15.933Z,80
2018-05-10T04:24:42.078Z,80
2018-05-10T04:25:08.243Z,80
2018-05-10T04:25:34.363Z,80
2018-05-10T04:26:00.500Z,85
2018-05-10T04:26:26.637Z,85
2018-05-10T04:26:52.778Z,85
2018-05-10T04:27:18.967Z,85
2018-05-10T04:27:45.108Z,90
2018-05-10T04:28:11.247Z,90
2018-05-10T04:28:37.384Z,90
2018-05-10T04:29:03.530Z,95
2018-05-10T04:29:29.670Z,95
2018-05-10T04:29:55.811Z,95
2018-05-10T04:30:21.954Z,100
2018-05-10T04:30:48.100Z,100
2018-05-10T04:31:14.258Z,105
2018-05-10T04:31:40.405Z,105
2018-05-10T04:32:06.570Z,105
2018-05-10T04:32:32.752Z,105
2018-05-10T04:32:58.899Z,110
2018-05-10T04:33:25.057Z,110
2018-05-10T04:33:51.201Z,110
2018-05-10T04:34:17.336Z,115
2018-05-10T04:34:43.487Z,115
2018-05-10T04:35:09.614Z,115
2018-05-10T04:35:35.759Z,120
2018-05-10T04:36:01.916Z,120
2018-05-10T04:36:28.048Z,125
2018-05-10T04:36:54.213Z,125
2018-05-10T04:37:20.381Z,125
2018-05-10T04:37:46.518Z,130
2018-05-10T04:38:12.656Z,130
2018-05-10T04:38:38.802Z,130
2018-05-10T04:39:04.935Z,130
2018-05-10T04:39:31.072Z,135
2018-05-10T04:39:57.258Z,135
2018-05-10T04:40:23.420Z,135
2018-05-10T04:40:49.565Z,135
2018-05-10T04:41:15.728Z,140
2018-05-10T04:41:41.886Z,145
2018-05-10T04:42:08.031Z,145
2018-05-10T04:42:34.169Z,145
2018-05-10T04:43:00.332Z,145
2018-05-10T04:43:26.496Z,145
2018-05-10T04:43:52.664Z,145
2018-05-10T04:44:18.805Z,140
2018-05-10T04:44:44.941Z,135
2018-05-10T04:45:11.078Z,135
2018-05-10T04:45:37.212Z,140
2018-05-10T04:46:03.398Z,140
2018-05-10T04:46:29.538Z,140
2018-05-10T04:46:55.729Z,135
2018-05-10T04:47:21.890Z,135
2018-05-10T04:47:48.036Z,130
2018-05-10T04:48:14.232Z,130
2018-05-10T04:48:40.390Z,130
2018-05-10T04:49:06.533Z,125
2018-05-10T04:49:32.695Z,125
2018-05-10T04:49:58.907Z,130
2018-05-10T04:50:24.990Z,135
2018-05-10T04:50:51.128Z,130
2018-05-10T04:51:17.292Z,130
2018-05-10T04:51:43.429Z,125
2018-05-10T04:52:09.573Z,125
2018-05-10T04:52:35.733Z,125
2018-05-10T04:53:01.900Z,130
2018-05-10T04:53:28.071Z,135
2018-05-10T04:53:54.218Z,135
2018-05-10T04:54:20.379Z,135
2018-05-10T04:54:46.610Z,130
2018-05-10T04:55:12.678Z,120
2018-05-10T04:55:38.843Z,125
2018-05-10T04:56:04.991Z,125
2018-05-10T04:56:31.123Z,125
2018-05-10T04:56:57.264Z,115
2018-05-10T04:57:23.423Z,110
2018-05-10T04:57:49.564Z,105
2018-05-10T04:58:15.731Z,105
2018-05-10T04:58:41.872Z,110
2018-05-10T04:59:08.012Z,115
2018-05-10T04:59:34.150Z,120
2018-05-10T05:00:00.291Z,125
2018-05-10T05:00:26.443Z,130
2018-05-10T05:00:52.589Z,130
2018-05-10T05:01:18.731Z,125
2018-05-10T05:01:44.889Z,120
2018-05-10T05:02:11.049Z,125
2018-05-10T05:02:37.192Z,130
2018-05-10T05:03:03.328Z,135
2018-05-10T05:03:29.523Z,135
2018-05-10T05:03:55.617Z,140
2018-05-10T05:04:21.756Z,145
2018-05-10T05:04:47.892Z,145
2018-05-10T05:05:14.023Z,140
2018-05-10T05:05:40.170Z,135
2018-05-10T05:06:06.300Z,140
2018-05-10T05:06:32.440Z,145
2018-05-10T05:06:58.607Z,150
2018-05-10T05:07:24.739Z,150
2018-05-10T05:07:50.871Z,145
2018-05-10T05:08:17.012Z,155
2018-05-10T05:08:43.164Z,155
2018-05-10T05:09:09.319Z,155
2018-05-10T05:09:35.452Z,155
2018-05-10T05:10:01.596Z,160
2018-05-10T05:10:27.757Z,160
2018-05-10T05:10:53.897Z,165
2018-05-10T05:11:20.037Z,170
2018-05-10T05:11:46.180Z,160
2018-05-10T05:12:12.345Z,145
2018-05-10T05:12:38.487Z,140
2018-05-10T05:13:04.621Z,145
2018-05-10T05:13:30.779Z,155
2018-05-10T05:13:56.944Z,150
2018-05-10T05:14:23.084Z,150
2018-05-10T05:14:49.227Z,150
2018-05-10T05:15:15.369Z,145
2018-05-10T05:15:41.512Z,140
2018-05-10T05:16:07.672Z,140
2018-05-10T05:16:33.813Z,135
2018-05-10T05:16:59.958Z,140
2018-05-10T05:17:26.089Z,140
2018-05-10T05:17:52.229Z,130
2018-05-10T05:18:18.369Z,130
2018-05-10T05:18:44.516Z,130
2018-05-10T05:19:10.688Z,130
2018-05-10T05:19:36.828Z,130
2018-05-10T05:20:02.965Z,130
2018-05-10T05:20:29.112Z,125
2018-05-10T05:20:55.251Z,125
2018-05-10T05:21:21.395Z,125
2018-05-10T05:21:47.530Z,120
2018-05-10T05:22:13.672Z,115
2018-05-10T05:22:39.821Z,110
2018-05-10T05:23:05.953Z,110
2018-05-10T05:23:32.111Z,105
2018-05-10T05:23:58.249Z,100
2018-05-10T05:24:24.389Z,110
2018-05-10T05:24:50.528Z,110
2018-05-10T05:25:16.672Z,115
2018-05-10T05:25:42.814Z,110
2018-05-10T05:26:08.962Z,115
2018-05-10T05:26:35.104Z,110
2018-05-10T05:27:01.242Z,110
2018-05-10T05:27:27.382Z,110
2018-05-10T05:27:53.527Z,100
2018-05-10T05:28:19.666Z,95
2018-05-10T05:28:45.813Z,100
2018-05-10T05:29:11.950Z,110
2018-05-10T05:29:38.096Z,110
2018-05-10T05:30:04.255Z,105
2018-05-10T05:30:30.422Z,100
2018-05-10T05:30:56.561Z,95
2018-05-10T05:31:22.747Z,95
2018-05-10T05:31:48.919Z,90
2018-05-10T05:32:15.061Z,90
2018-05-10T05:32:41.285Z,90
2018-05-10T05:33:07.367Z,90
2018-05-10T05:33:33.505Z,90
2018-05-10T05:33:59.648Z,90
2018-05-10T05:34:25.791Z,85
2018-05-10T05:34:51.940Z,80
2018-05-10T05:35:18.078Z,75
2018-05-10T05:35:44.231Z,70
2018-05-10T05:36:10.401Z,75
2018-05-10T05:36:36.557Z,75
2018-05-10T05:37:02.711Z,70
2018-05-10T05:37:28.845Z,70
2018-05-10T05:37:55.013Z,75
2018-05-10T05:38:21.151Z,70
2018-05-10T05:38:47.312Z,65
2018-05-10T05:39:13.456Z,60
2018-05-10T05:39:39.595Z,60
2018-05-10T05:40:05.735Z,60
2018-05-10T05:40:31.895Z,60
2018-05-10T05:40:58.042Z,60
2018-05-10T05:41:24.284Z,60
2018-05-10T05:41:50.369Z,60
2018-05-10T05:42:16.513Z,60
2018-05-10T05:42:42.665Z,60
2018-05-10T05:43:08.999Z,60
2018-05-10T05:43:35.011Z,60
2018-05-10T05:44:01.121Z,60
2018-05-10T05:44:27.260Z,65
2018-05-10T05:44:53.420Z,65
2018-05-10T05:45:19.561Z,65
2018-05-10T05:45:45.697Z,65
2018-05-10T05:46:11.845Z,65
2018-05-10T05:46:37.985Z,65
2018-05-10T05:47:04.117Z,70
2018-05-10T05:47:30.289Z,70
2018-05-10T05:47:56.454Z,75
2018-05-10T05:48:22.596Z,75
2018-05-10T05:48:48.799Z,80
2018-05-10T05:49:14.934Z,85
2018-05-10T05:49:41.072Z,85
2018-05-10T05:50:07.206Z,90
2018-05-10T05:50:33.349Z,90
2018-05-10T05:50:59.485Z,90
2018-05-10T05:51:25.626Z,95
2018-05-10T05:51:51.789Z,95
2018-05-10T05:52:17.931Z,95
2018-05-10T05:52:44.101Z,100
2018-05-10T05:53:10.271Z,100
2018-05-10T05:53:36.416Z,105
2018-05-10T05:54:02.588Z,105
2018-05-10T05:54:28.752Z,110
2018-05-10T05:54:54.982Z,110
2018-05-10T05:55:21.062Z,115
2018-05-10T05:55:47.206Z,120
2018-05-10T05:56:13.346Z,120
2018-05-10T05:56:39.480Z,120
2018-05-10T05:57:05.641Z,125
2018-05-10T05:57:31.786Z,130
2018-05-10T05:57:57.951Z,130
2018-05-10T05:58:24.096Z,135
2018-05-10T05:58:50.281Z,140
2018-05-10T05:59:16.420Z,140
2018-05-10T05:59:42.657Z,145
2018-05-10T06:00:08.823Z,150
2018-05-10T06:00:34.965Z,155
2018-05-10T06:01:01.107Z,155
2018-05-10T06:01:27.248Z,160
2018-05-10T06:01:53.475Z,165
2018-05-10T06:02:19.551Z,170
2018-05-10T06:02:45.692Z,175
2018-05-10T06:03:12.002Z,180
2018-05-10T06:03:38.109Z,185
2018-05-10T06:04:04.251Z,190
2018-05-10T06:04:30.395Z,195
2018-05-10T06:04:56.532Z,200
2018-05-10T06:05:22.675Z,205
2018-05-10T06:05:48.847Z,215
2018-05-10T06:06:14.986Z,225
2018-05-10T06:06:41.118Z,240
2018-05-10T06:07:07.264Z,240
2018-05-10T06:07:33.400Z,245
2018-05-10T06:07:59.591Z,255
2018-05-10T06:08:25.734Z,255
2018-05-10T06:08:51.877Z,260
2018-05-10T06:09:18.009Z,260
2018-05-10T06:09:44.169Z,265
2018-05-10T06:10:10.309Z,265
2018-05-10T06:10:36.455Z,270
2018-05-10T06:11:02.597Z,270
2018-05-10T06:11:28.772Z,275
2018-05-10T06:11:54.908Z,275
2018-05-10T06:12:21.048Z,275
2018-05-10T06:12:47.187Z,275
2018-05-10T06:13:13.382Z,270
2018-05-10T06:13:39.531Z,270
2018-05-10T06:14:05.668Z,270
2018-05-10T06:14:31.833Z,265
2018-05-10T06:14:57.967Z,265
2018-05-10T06:15:24.191Z,265
2018-05-10T06:15:50.412Z,260
2018-05-10T06:16:17.704Z,260
2018-05-10T06:16:44.305Z,260
2018-05-10T06:17:10.709Z,260
2018-05-10T06:17:36.880Z,265